Flight Track Log - Related Links

Times and Time Zones

All times are in EST time to prevent confusion due to time zone crossing. See the N27XP flight status page for this flight to view local times or setup timezone preferences in your user account.

Time Position Orientation Groundspeed Altitude Reporting Facility
EST Latitude Longitude Course Direction KTS MPH feet Rate Location/Type
Fri 01:15:43 PM 35.3017 -79.4361 260° West 275 316 5,800  Level Washington Center
Fri 01:16:43 PM 35.2872 -79.5314 260° West 270 311 8,500 2,032 Climbing Washington Center
Fri 01:17:47 PM 35.2739 -79.6228 260° West 272 313 10,000 1,210 Climbing Washington Center
Fri 01:18:47 PM 35.2589 -79.7328 261° West 303 349 11,000 968 Climbing Washington Center
Fri 01:19:51 PM 35.2439 -79.8342 260° West 304 350 12,000 1,248 Climbing Washington Center
Fri 01:20:52 PM 35.2272 -79.9489 260° West 318 366 13,600 968 Climbing Washington Center
Fri 01:21:00 PM 35.2225 -79.4931 260° West  Level FlightAware Approximate
Fri 01:21:55 PM 35.2108 -80.0589 260° West 326 375 14,000  Level Washington Center
Fri 01:22:57 PM 35.1922 -80.1792 259° West 335 386 15,300 960 Climbing Washington Center
Fri 01:24:00 PM 35.1769 -80.2872 260° West 324 373 16,000 316 Climbing Washington Center
Fri 01:25:10 PM 35.1539 -80.4264 259° West 340 391 16,000  Level Atlanta Center
Fri 01:26:10 PM 35.1367 -80.5467 260° West 345 397 16,000  Level Atlanta Center
Fri 01:27:10 PM 35.1189 -80.6617 259° West 351 404 16,000  Level Atlanta Center
Fri 01:28:10 PM 35.1014 -80.7842 260° West 356 410 16,000  Level Atlanta Center
Fri 01:29:10 PM 35.0833 -80.8914 258° West 362 417 16,000  Level Atlanta Center
Fri 01:30:10 PM 35.0636 -81.0167 259° West 362 417 16,000 50 Level Atlanta Center
Fri 01:31:10 PM 35.0456 -81.1339 259° West 362 417 16,100 50 Climbing Atlanta Center
Fri 01:32:10 PM 35.0275 -81.2564 260° West 367 422 16,100 -50 Level Atlanta Center
Fri 01:33:10 PM 35.0092 -81.3761 259° West 367 422 16,000  Descending Atlanta Center
Fri 01:34:10 PM 34.9889 -81.5011 259° West 372 428 16,100  Climbing Atlanta Center
Fri 01:35:10 PM 34.9683 -81.6233 258° West 372 428 16,000 -50 Descending Atlanta Center
Fri 01:36:10 PM 34.9708 -81.7447 271° West 372 428 16,000 -50 Level Atlanta Center
Fri 01:37:10 PM 34.9917 -81.8661 282° West 366 421 15,900 -1,250 Descending Atlanta Center
Fri 01:38:10 PM 35.0000 -81.9772 275° West 360 414 13,500 -2,450 Descending Atlanta Center
Fri 01:39:10 PM 34.9658 -82.0694 246° West 315 362 11,000 -1,450 Descending Atlanta Center
Fri 01:40:10 PM 34.8981 -82.1344 218° Southwest 285 328 10,600 -1,600 Descending Atlanta Center
Fri 01:41:10 PM 34.8256 -82.1739 204° Southwest 278 320 7,800 -2,750 Descending Atlanta Center
Fri 01:42:10 PM 34.7658 -82.2258 216° Southwest 278 320 5,100 -2,400 Descending Atlanta Center
Fri 01:43:10 PM 34.7650 -82.3144 269° West 238 274 3,000 -1,300 Descending Atlanta Center
Fri 01:44:10 PM 34.7950 -82.3592 309° West 183 211 2,500 -250 Descending Atlanta Center
Fri 01:45:10 PM 34.7939 -82.4250 269° West 183 211 2,500 4,250 Level Atlanta Center
Fri 01:46:10 PM 34.7986 -82.4883 275° West 183 211 11,000 4,250 Climbing Atlanta Center
Fri 01:47:10 PM 34.8058 -82.5514 278° West 183 211 11,000  Level Atlanta Center
Fri 01:48:10 PM 34.8058 -82.5514 15° North 183 211 11,000  Level Atlanta Center

Login

Don't have an account? Register now (free) for customized features, flight alerts, and more!